createdAt,value
2022-12-05T00:44:25.336Z,99916.34
2022-12-05T00:47:25.562Z,99915.72
2022-12-05T00:49:59.038Z,99908.59
2022-12-05T00:52:53.751Z,99914.19
2022-12-05T00:55:20.748Z,99919.41
2022-12-05T00:57:47.977Z,99919.97
2022-12-05T01:00:15.960Z,99921.94
2022-12-05T01:02:43.269Z,99926.56
2022-12-05T01:05:10.378Z,99918.44
2022-12-05T01:07:37.644Z,99918.34
2022-12-05T01:10:05.636Z,99906.75
2022-12-05T01:12:33.669Z,99893.00
2022-12-05T01:15:00.687Z,99898.06
2022-12-05T01:17:28.057Z,99900.50
2022-12-05T01:19:55.107Z,99900.69
2022-12-05T01:22:22.449Z,99907.38
2022-12-05T01:24:49.464Z,99909.88
2022-12-05T01:27:16.688Z,99901.25
2022-12-05T01:29:43.644Z,99904.91
2022-12-05T01:32:10.936Z,99903.97
2022-12-05T01:34:37.949Z,99905.94
2022-12-05T01:37:05.093Z,99906.66
2022-12-05T01:39:32.136Z,99898.47
2022-12-05T01:41:59.595Z,99893.13
2022-12-05T01:44:26.454Z,99904.16
2022-12-05T01:46:56.054Z,99906.41
2022-12-05T01:49:39.208Z,99890.13
2022-12-05T01:52:18.891Z,99892.81
2022-12-05T01:54:50.376Z,99891.06
2022-12-05T01:57:18.087Z,99889.59
2022-12-05T01:59:51.668Z,99889.09
2022-12-05T02:02:20.211Z,99898.59
2022-12-05T02:05:11.444Z,99900.66
2022-12-05T02:07:41.239Z,99893.97
2022-12-05T02:10:21.080Z,99892.81
2022-12-05T02:12:52.084Z,99884.44
2022-12-05T02:15:33.862Z,99878.56
2022-12-05T02:18:39.260Z,99869.84
2022-12-05T02:21:43.832Z,99871.25
2022-12-05T02:24:58.020Z,99881.75
2022-12-05T02:27:57.437Z,99863.69
2022-12-05T02:30:26.776Z,99859.09
2022-12-05T02:32:59.744Z,99863.97
2022-12-05T02:35:50.926Z,99877.19
2022-12-05T02:38:28.741Z,99873.88
2022-12-05T02:41:12.453Z,99879.81
2022-12-05T02:43:59.843Z,99882.88
2022-12-05T02:46:33.161Z,99880.19
2022-12-05T02:49:10.256Z,99882.97
2022-12-05T02:51:46.770Z,99881.59
2022-12-05T02:54:23.853Z,99866.66
2022-12-05T02:56:54.927Z,99874.38
2022-12-05T02:59:23.772Z,99870.47
2022-12-05T03:01:52.469Z,99878.31
2022-12-05T03:04:24.251Z,99878.31
2022-12-05T03:07:07.111Z,99875.66
2022-12-05T03:09:44.385Z,99874.69
2022-12-05T03:12:26.095Z,99863.78
2022-12-05T03:15:22.974Z,99875.59
2022-12-05T03:18:08.184Z,99872.28
2022-12-05T03:20:48.500Z,99872.47
2022-12-05T03:23:29.447Z,99874.53
2022-12-05T03:26:14.317Z,99881.22
2022-12-05T03:29:07.840Z,99880.25
2022-12-05T03:32:10.815Z,99873.47
2022-12-05T03:35:06.497Z,99902.81
2022-12-05T03:37:47.327Z,99894.06
2022-12-05T03:40:47.492Z,99901.84
2022-12-05T03:43:34.508Z,99903.22
2022-12-05T03:46:26.192Z,99910.16
2022-12-05T03:49:02.760Z,99908.94
2022-12-05T03:51:53.218Z,99906.22
2022-12-05T03:54:29.812Z,99903.13
2022-12-05T03:57:55.759Z,99911.94
2022-12-05T04:00:24.637Z,99894.00
2022-12-05T04:03:23.014Z,99901.41
2022-12-05T04:05:57.658Z,99897.03
2022-12-05T04:08:44.385Z,99909.88
2022-12-05T04:11:18.520Z,99895.94
2022-12-05T04:14:06.684Z,99886.38
2022-12-05T04:17:04.642Z,99909.53
2022-12-05T04:20:04.904Z,99896.25
2022-12-05T04:22:34.353Z,99900.56
2022-12-05T04:25:24.095Z,99907.91
2022-12-05T04:28:19.599Z,99898.03
2022-12-05T04:31:03.708Z,99894.78
2022-12-05T04:33:50.270Z,99893.72
2022-12-05T04:36:40.604Z,99893.53
2022-12-05T04:39:26.127Z,99891.94
2022-12-05T04:41:57.676Z,99885.66
2022-12-05T04:44:35.115Z,99889.47
2022-12-05T04:47:07.362Z,99887.97
2022-12-05T04:49:37.888Z,99879.50
2022-12-05T04:52:10.475Z,99872.66
2022-12-05T04:54:59.400Z,99884.41
2022-12-05T04:57:42.356Z,99872.25
2022-12-05T05:00:09.908Z,99871.31
2022-12-05T05:02:58.111Z,99857.78
2022-12-05T05:05:27.595Z,99849.41
2022-12-05T05:07:55.652Z,99855.50
2022-12-05T05:10:37.691Z,99860.88
2022-12-05T05:13:05.109Z,99859.09
2022-12-05T05:15:32.003Z,99861.56
2022-12-05T05:17:59.260Z,99863.03
2022-12-05T05:20:27.258Z,99869.19
2022-12-05T05:22:57.135Z,99860.53
2022-12-05T05:25:25.826Z,99863.34
2022-12-05T05:27:56.159Z,99860.78
2022-12-05T05:30:24.788Z,99845.56
2022-12-05T05:32:52.449Z,99836.16
2022-12-05T05:35:20.252Z,99848.78
2022-12-05T05:37:47.820Z,99858.47
2022-12-05T05:40:15.184Z,99868.16
2022-12-05T05:42:50.769Z,99867.66
2022-12-05T05:45:18.374Z,99862.53
2022-12-05T05:47:48.516Z,99865.50
2022-12-05T05:50:21.110Z,99857.97
2022-12-05T05:52:49.503Z,99862.75
2022-12-05T05:55:16.494Z,99851.91
2022-12-05T05:57:43.683Z,99843.31
2022-12-05T06:00:11.387Z,99853.59
2022-12-05T06:02:38.892Z,99858.69
2022-12-05T06:05:06.777Z,99848.28
2022-12-05T06:07:34.349Z,99849.31
2022-12-05T06:10:02.552Z,99847.66
2022-12-05T06:12:29.932Z,99864.38
2022-12-05T06:14:56.967Z,99853.53
2022-12-05T06:17:24.252Z,99848.56
2022-12-05T06:19:51.707Z,99848.03
2022-12-05T06:22:19.291Z,99854.38
2022-12-05T06:24:46.385Z,99854.56
2022-12-05T06:27:13.801Z,99853.59
2022-12-05T06:29:40.929Z,99857.78
2022-12-05T06:32:09.154Z,99863.69
2022-12-05T06:34:36.737Z,99876.84
2022-12-05T06:37:04.461Z,99863.97
2022-12-05T06:39:31.484Z,99879.50
2022-12-05T06:41:59.035Z,99878.41
2022-12-05T06:44:27.077Z,99861.72
2022-12-05T06:46:55.704Z,99869.88
2022-12-05T06:49:31.713Z,99859.31
2022-12-05T06:52:02.365Z,99868.50
2022-12-05T06:54:29.244Z,99868.00
2022-12-05T06:56:56.484Z,99863.97
2022-12-05T06:59:23.521Z,99865.31
2022-12-05T07:01:51.310Z,99869.34
2022-12-05T07:04:26.947Z,99867.56
2022-12-05T07:06:56.333Z,99872.34
2022-12-05T07:09:45.802Z,99862.81
2022-12-05T07:12:16.852Z,99848.13
2022-12-05T07:14:48.973Z,99861.38
2022-12-05T07:17:22.047Z,99863.97
2022-12-05T07:19:50.313Z,99856.84
2022-12-05T07:22:20.333Z,99858.50
2022-12-05T07:24:48.571Z,99860.16
2022-12-05T07:27:16.446Z,99848.38
2022-12-05T07:29:44.685Z,99859.06
2022-12-05T07:32:11.949Z,99869.56
2022-12-05T07:34:39.026Z,99866.34
2022-12-05T07:37:06.395Z,99868.63
2022-12-05T07:39:33.436Z,99863.81
2022-12-05T07:42:00.720Z,99865.00
2022-12-05T07:44:29.130Z,99865.00
2022-12-05T07:46:56.562Z,99868.00
2022-12-05T07:49:23.537Z,99868.09
2022-12-05T07:51:51.116Z,99863.88
2022-12-05T07:54:18.252Z,99857.72
2022-12-05T07:56:47.983Z,99870.38
2022-12-05T07:59:15.249Z,99864.19
2022-12-05T08:01:42.588Z,99859.00
2022-12-05T08:04:15.065Z,99863.31
2022-12-05T08:06:43.420Z,99857.94
2022-12-05T08:09:10.372Z,99861.91
2022-12-05T08:11:40.972Z,99860.34
2022-12-05T08:14:09.451Z,99858.69
2022-12-05T08:16:36.793Z,99866.59
2022-12-05T08:19:12.881Z,99864.38
2022-12-05T08:21:40.476Z,99861.41
2022-12-05T08:24:08.224Z,99867.97
2022-12-05T08:26:37.947Z,99865.69
2022-12-05T08:29:12.053Z,99872.44
2022-12-05T08:31:47.574Z,99877.69
2022-12-05T08:34:17.513Z,99872.31
2022-12-05T08:36:45.554Z,99881.22
2022-12-05T08:39:16.500Z,99881.88
2022-12-05T08:41:46.399Z,99884.88
2022-12-05T08:44:16.970Z,99884.03
2022-12-05T08:46:48.603Z,99889.47
2022-12-05T08:49:17.103Z,99877.56
2022-12-05T08:51:45.105Z,99877.94
2022-12-05T08:54:12.675Z,99877.25
2022-12-05T08:56:40.368Z,99883.19
2022-12-05T08:59:08.004Z,99879.28
2022-12-05T09:01:38.451Z,99875.69
2022-12-05T09:04:06.826Z,99877.31
2022-12-05T09:06:34.897Z,99866.91
2022-12-05T09:09:08.313Z,99875.03
2022-12-05T09:11:41.403Z,99872.56
2022-12-05T09:14:08.825Z,99870.09
2022-12-05T09:16:39.250Z,99868.69
2022-12-05T09:19:14.557Z,99861.88
2022-12-05T09:21:43.561Z,99867.84
2022-12-05T09:24:13.203Z,99855.03
2022-12-05T09:26:41.740Z,99856.31
2022-12-05T09:29:16.234Z,99858.13
2022-12-05T09:31:48.705Z,99849.75
2022-12-05T09:34:18.190Z,99853.19
2022-12-05T09:36:55.697Z,99845.78
2022-12-05T09:39:28.660Z,99843.16
2022-12-05T09:42:46.126Z,99840.38
2022-12-05T09:45:40.039Z,99827.66
2022-12-05T09:48:16.230Z,99822.38
2022-12-05T09:51:02.921Z,99827.69
2022-12-05T09:53:43.641Z,99816.09
2022-12-05T09:56:27.845Z,99805.56
2022-12-05T09:58:58.355Z,99804.22
2022-12-05T10:01:42.354Z,99812.47
2022-12-05T10:05:00.432Z,99820.06
2022-12-05T10:08:21.108Z,99820.06
2022-12-05T10:11:11.696Z,99806.84
2022-12-05T10:14:01.263Z,99799.44
2022-12-05T10:16:40.949Z,99800.91
2022-12-05T10:19:47.856Z,99782.41
2022-12-05T10:22:28.769Z,99781.38
2022-12-05T10:25:03.214Z,99785.19
2022-12-05T10:27:40.222Z,99790.63
2022-12-05T10:30:17.613Z,99787.31
2022-12-05T10:33:09.542Z,99780.75
2022-12-05T10:35:40.927Z,99783.72
2022-12-05T10:38:25.543Z,99786.22
2022-12-05T10:40:58.200Z,99775.44
2022-12-05T10:43:33.105Z,99774.94
2022-12-05T10:46:07.150Z,99779.31
2022-12-05T10:48:39.924Z,99767.47
2022-12-05T10:51:13.705Z,99757.88
2022-12-05T10:53:49.640Z,99751.38
2022-12-05T10:56:39.592Z,99757.47
2022-12-05T10:59:11.509Z,99756.41
2022-12-05T11:01:49.163Z,99767.66
2022-12-05T11:04:40.225Z,99754.41
2022-12-05T11:07:07.384Z,99753.03
2022-12-05T11:09:38.899Z,99749.75
2022-12-05T11:12:26.064Z,99743.50
2022-12-05T11:15:16.474Z,99739.16
2022-12-05T11:17:43.720Z,99740.41
2022-12-05T11:20:19.758Z,99740.00
2022-12-05T11:22:50.690Z,99735.19
2022-12-05T11:25:35.243Z,99730.53
2022-12-05T11:28:18.095Z,99733.88
2022-12-05T11:31:20.845Z,99726.59
2022-12-05T11:34:15.138Z,99718.81
2022-12-05T11:36:58.432Z,99720.81
2022-12-05T11:39:26.091Z,99724.09
2022-12-05T11:42:22.961Z,99717.78
2022-12-05T11:45:30.259Z,99706.13
2022-12-05T11:48:17.384Z,99706.50
2022-12-05T11:51:15.830Z,99698.22
2022-12-05T11:54:35.552Z,99692.19
2022-12-05T11:57:46.123Z,99691.91
2022-12-05T12:01:11.451Z,99693.28
2022-12-05T12:04:12.042Z,99693.03
2022-12-05T12:08:05.402Z,99680.63
2022-12-05T12:11:10.490Z,99687.88
2022-12-05T12:14:47.394Z,99691.09
2022-12-05T12:18:04.518Z,99690.47
2022-12-05T12:20:51.356Z,99679.59
2022-12-05T12:33:16.861Z,99669.34
2022-12-05T12:37:11.982Z,99661.00
2022-12-05T12:40:18.334Z,99665.50
2022-12-05T12:43:51.660Z,99663.75
2022-12-05T12:46:42.719Z,99664.63
2022-12-05T12:50:02.986Z,99669.22
2022-12-05T12:53:25.252Z,99675.03
2022-12-05T12:56:30.739Z,99659.28
2022-12-05T12:59:22.432Z,99653.91
2022-12-05T13:02:00.933Z,99655.19
2022-12-05T13:04:40.438Z,99651.53
2022-12-05T13:07:36.470Z,99670.34
2022-12-05T13:10:55.835Z,99669.16
2022-12-05T13:14:15.304Z,99660.94
2022-12-05T13:16:50.325Z,99660.47
2022-12-05T13:19:44.327Z,99665.06
2022-12-05T13:22:13.838Z,99664.78
2022-12-05T13:24:42.493Z,99671.34
2022-12-05T13:27:18.788Z,99657.34
2022-12-05T13:30:03.305Z,99658.72
2022-12-05T13:32:37.522Z,99654.06
2022-12-05T13:35:07.552Z,99660.38
2022-12-05T13:37:54.822Z,99658.97
2022-12-05T13:40:54.160Z,99657.59
2022-12-05T13:43:30.122Z,99659.44
2022-12-05T13:46:09.528Z,99657.41
2022-12-05T13:48:46.745Z,99659.13
2022-12-05T13:51:37.023Z,99653.50
2022-12-05T13:54:15.390Z,99650.72
2022-12-05T13:57:02.959Z,99657.28
2022-12-05T14:00:23.248Z,99674.09
2022-12-05T14:03:04.380Z,99663.53
2022-12-05T14:05:48.167Z,99668.06
2022-12-05T14:08:39.516Z,99678.69
2022-12-05T14:11:11.983Z,99668.06
2022-12-05T14:13:43.492Z,99675.41
2022-12-05T14:16:26.447Z,99667.66
2022-12-05T14:19:21.366Z,99675.53
2022-12-05T14:22:37.317Z,99665.91
2022-12-05T14:25:17.287Z,99676.28
2022-12-05T14:28:12.914Z,99680.34
2022-12-05T14:31:34.379Z,99678.84
2022-12-05T14:34:57.494Z,99673.66
2022-12-05T14:37:48.450Z,99678.91
2022-12-05T14:40:42.144Z,99674.00
2022-12-05T14:43:27.029Z,99676.19
2022-12-05T14:46:02.076Z,99689.41
2022-12-05T14:48:33.506Z,99699.56
2022-12-05T14:51:22.675Z,99694.63
2022-12-05T14:53:51.072Z,99698.88
2022-12-05T14:56:27.109Z,99696.78
2022-12-05T14:59:13.113Z,99699.81
2022-12-05T15:01:50.956Z,99698.53
2022-12-05T15:04:24.369Z,99688.31
2022-12-05T15:07:02.570Z,99693.97
2022-12-05T15:09:37.681Z,99689.03
2022-12-05T15:12:16.852Z,99691.88
2022-12-05T15:15:13.651Z,99695.38
2022-12-05T15:17:51.535Z,99684.09
2022-12-05T15:20:52.332Z,99682.00
2022-12-05T15:23:57.964Z,99679.91
2022-12-05T15:26:55.036Z,99667.66
2022-12-05T15:29:40.299Z,99660.09
2022-12-05T15:32:11.581Z,99675.38
2022-12-05T15:35:04.835Z,99677.38
2022-12-05T15:38:06.203Z,99677.38
2022-12-05T15:40:37.660Z,99675.75
2022-12-05T15:43:32.651Z,99682.66
2022-12-05T15:46:23.938Z,99685.72
2022-12-05T16:04:09.409Z,99682.41
2022-12-05T16:07:10.536Z,99689.06
2022-12-05T16:23:56.662Z,99666.47
2022-12-05T16:31:44.783Z,99666.41
2022-12-05T16:34:17.048Z,99675.34
2022-12-05T16:41:22.706Z,99670.53
2022-12-05T16:44:53.214Z,99666.63
2022-12-05T16:47:46.993Z,99673.91
2022-12-05T16:58:34.067Z,99657.47
2022-12-05T17:05:25.567Z,99660.66
2022-12-05T17:12:03.245Z,99660.22
2022-12-05T17:14:42.915Z,99656.94
2022-12-05T17:18:19.330Z,99670.19
2022-12-05T17:24:46.530Z,99659.94
2022-12-05T17:32:13.285Z,99667.25
2022-12-05T17:35:26.952Z,99670.88
2022-12-05T17:38:39.000Z,99664.59
2022-12-05T17:41:46.837Z,99669.06
2022-12-05T17:51:10.331Z,99665.94
2022-12-05T17:59:40.262Z,99669.41
2022-12-05T18:20:11.537Z,99667.59
2022-12-05T18:26:41.848Z,99670.25
2022-12-05T18:29:20.334Z,99665.78
2022-12-05T18:37:14.392Z,99666.97
2022-12-05T18:39:42.124Z,99666.97
2022-12-05T18:42:15.077Z,99666.13
2022-12-05T18:44:43.196Z,99670.44
2022-12-05T18:47:10.164Z,99671.44
2022-12-05T18:54:19.980Z,99669.97
2022-12-05T18:56:50.527Z,99668.97
2022-12-05T18:59:51.939Z,99670.59
2022-12-05T19:02:19.937Z,99670.81
2022-12-05T19:04:47.848Z,99674.44
2022-12-05T19:07:16.108Z,99664.03
2022-12-05T19:09:43.844Z,99681.56
2022-12-05T19:12:11.496Z,99671.97
2022-12-05T19:14:41.172Z,99669.34
2022-12-05T19:17:09.143Z,99672.16
2022-12-05T19:19:37.007Z,99674.63
2022-12-05T19:22:05.103Z,99675.47
2022-12-05T19:29:40.447Z,99668.69
2022-12-05T19:32:16.796Z,99669.69
2022-12-05T19:34:46.455Z,99667.22
2022-12-05T19:37:13.536Z,99671.69
2022-12-05T19:39:40.875Z,99667.59
2022-12-05T19:42:08.223Z,99668.78
2022-12-05T19:44:35.559Z,99672.41
2022-12-05T19:47:02.463Z,99665.47
2022-12-05T19:49:29.947Z,99671.78
2022-12-05T21:28:16.679Z,99640.34
2022-12-05T21:31:45.354Z,99648.47
2022-12-05T21:34:29.006Z,99655.59
2022-12-05T21:37:32.546Z,99650.66
2022-12-05T21:44:40.758Z,99637.41
2022-12-05T21:55:48.964Z,99622.91
2022-12-05T21:58:53.615Z,99626.19
2022-12-05T22:02:17.512Z,99631.31
2022-12-05T22:30:12.660Z,99614.13
2022-12-05T22:35:04.457Z,99611.03
2022-12-05T22:55:00.227Z,99588.19
2022-12-05T22:59:23.645Z,99588.19
2022-12-05T23:17:27.892Z,99582.25
2022-12-05T23:19:59.324Z,99570.66
2022-12-05T23:22:26.929Z,99569.03
2022-12-05T23:24:55.168Z,99570.66
2022-12-05T23:27:24.968Z,99573.31
2022-12-05T23:29:59.084Z,99577.59
2022-12-05T23:32:32.326Z,99565.34
2022-12-05T23:35:09.248Z,99573.50
2022-12-05T23:37:37.443Z,99574.69
2022-12-05T23:45:50.291Z,99563.09
2022-12-05T23:49:38.414Z,99558.44
2022-12-05T23:52:59.062Z,99562.06
